createdAt,value
2023-04-12T00:01:31.997Z,2.70
2023-04-12T00:04:04.560Z,2.90
2023-04-12T00:06:35.256Z,2.63
2023-04-12T00:09:04.363Z,3.13
2023-04-12T00:11:35.625Z,2.88
2023-04-12T00:14:05.328Z,2.92
2023-04-12T00:16:37.120Z,3.65
2023-04-12T00:19:06.932Z,2.75
2023-04-12T00:21:37.109Z,2.50
2023-04-12T00:24:07.410Z,2.72
2023-04-12T00:26:37.760Z,3.47
2023-04-12T00:29:07.464Z,2.83
2023-04-12T00:31:37.298Z,3.17
2023-04-12T00:34:07.182Z,3.17
2023-04-12T00:36:37.005Z,3.05
2023-04-12T00:39:10.084Z,2.80
2023-04-12T00:41:40.052Z,3.22
2023-04-12T00:44:08.376Z,2.95
2023-04-12T00:46:38.491Z,2.72
2023-04-12T00:49:08.679Z,3.38
2023-04-12T00:51:40.004Z,2.60
2023-04-12T00:54:09.910Z,3.25
2023-04-12T00:56:41.492Z,2.95
2023-04-12T00:59:11.128Z,2.80
2023-04-12T01:01:41.561Z,3.00
2023-04-12T01:04:14.173Z,3.17
2023-04-12T01:07:30.069Z,3.30
2023-04-12T01:10:37.007Z,3.40
2023-04-12T01:13:42.304Z,3.08
2023-04-12T01:16:31.256Z,3.33
2023-04-12T01:19:36.201Z,3.47
2023-04-12T01:23:06.231Z,3.20
2023-04-12T01:26:17.874Z,3.15
2023-04-12T01:28:54.412Z,3.53
2023-04-12T01:31:26.905Z,3.03
2023-04-12T01:33:59.501Z,3.10
2023-04-12T01:36:31.802Z,3.90
2023-04-12T01:39:05.094Z,2.90
2023-04-12T01:41:42.402Z,3.38
2023-04-12T01:44:18.924Z,2.92
2023-04-12T01:46:49.815Z,2.95
2023-04-12T01:49:28.409Z,3.42
2023-04-12T01:52:31.220Z,3.60
2023-04-12T01:55:07.390Z,3.85
2023-04-12T01:57:40.588Z,3.70
2023-04-12T02:00:12.285Z,3.95
2023-04-12T02:02:41.334Z,3.47
2023-04-12T02:05:11.579Z,3.38
2023-04-12T02:07:42.439Z,2.75
2023-04-12T02:10:16.079Z,3.97
2023-04-12T02:12:46.203Z,2.95
2023-04-12T02:15:16.343Z,3.30
2023-04-12T02:17:46.509Z,3.28
2023-04-12T02:20:18.168Z,3.30
2023-04-12T02:22:48.538Z,3.55
2023-04-12T02:25:18.817Z,3.50
2023-04-12T02:27:49.112Z,3.83
2023-04-12T02:30:19.182Z,4.35
2023-04-12T02:32:50.292Z,4.10
2023-04-12T02:35:20.638Z,3.80
2023-04-12T02:37:51.375Z,3.90
2023-04-12T02:40:20.558Z,3.83
2023-04-12T02:42:50.385Z,3.47
2023-04-12T02:45:20.106Z,4.60
2023-04-12T02:47:49.861Z,4.00
2023-04-12T02:50:19.763Z,3.45
2023-04-12T02:52:49.506Z,3.80
2023-04-12T02:55:19.438Z,3.65
2023-04-12T02:57:49.347Z,3.75
2023-04-12T03:00:20.399Z,3.97
2023-04-12T03:02:51.809Z,4.30
2023-04-12T03:05:21.808Z,4.13
2023-04-12T03:07:49.942Z,4.18
2023-04-12T03:10:18.334Z,3.70
2023-04-12T03:12:46.853Z,4.38
2023-04-12T03:15:15.171Z,3.92
2023-04-12T03:17:45.139Z,3.65
2023-04-12T03:20:15.050Z,4.65
2023-04-12T03:22:43.457Z,3.90
2023-04-12T03:25:12.835Z,3.80
2023-04-12T03:27:40.488Z,4.45
2023-04-12T03:30:14.631Z,3.90
2023-04-12T03:32:45.344Z,4.47
2023-04-12T03:35:15.503Z,3.70
2023-04-12T03:37:45.544Z,3.72
2023-04-12T03:40:15.194Z,4.13
2023-04-12T03:42:45.030Z,4.07
2023-04-12T03:45:14.842Z,3.83
2023-04-12T03:47:44.505Z,4.30
2023-04-12T03:50:14.437Z,4.68
2023-04-12T03:52:44.230Z,4.28
2023-04-12T03:55:18.222Z,5.13
2023-04-12T03:57:46.939Z,4.28
2023-04-12T04:00:17.045Z,5.07
2023-04-12T04:05:15.672Z,4.28
2023-04-12T04:07:45.056Z,4.68
2023-04-12T04:10:14.767Z,4.93
2023-04-12T04:12:44.452Z,4.65
2023-04-12T04:15:15.722Z,4.80
2023-04-12T04:17:47.639Z,4.22
2023-04-12T04:20:19.013Z,5.07
2023-04-12T04:22:49.106Z,4.40
2023-04-12T04:25:20.435Z,4.32
2023-04-12T04:27:51.178Z,4.22
2023-04-12T04:30:23.311Z,5.03
2023-04-12T04:32:53.626Z,4.88
2023-04-12T04:35:24.404Z,4.40
2023-04-12T04:37:55.082Z,4.32
2023-04-12T04:40:26.491Z,4.55
2023-04-12T04:42:56.283Z,4.32
2023-04-12T04:45:26.854Z,4.88
2023-04-12T04:47:57.620Z,4.75
2023-04-12T04:50:28.631Z,5.03
2023-04-12T04:52:58.375Z,5.00
2023-04-12T04:55:29.800Z,4.28
2023-04-12T04:57:59.856Z,4.72
2023-04-12T05:00:29.573Z,5.22
2023-04-12T05:02:59.573Z,4.80
2023-04-12T05:05:30.522Z,5.18
2023-04-12T05:08:00.838Z,5.40
2023-04-12T05:10:30.437Z,6.60
2023-04-12T05:13:00.142Z,5.85
2023-04-12T05:15:32.146Z,6.00
2023-04-12T05:18:02.745Z,6.82
2023-04-12T05:20:32.913Z,7.68
2023-04-12T05:23:01.464Z,7.13
2023-04-12T05:25:29.870Z,7.63
2023-04-12T05:28:01.338Z,6.97
2023-04-12T05:30:30.582Z,7.95
2023-04-12T05:33:01.353Z,7.38
2023-04-12T05:35:29.524Z,7.93
2023-04-12T05:37:57.845Z,6.18
2023-04-12T05:40:26.287Z,7.22
2023-04-12T05:42:59.785Z,8.35
2023-04-12T05:45:28.819Z,7.25
2023-04-12T05:47:58.878Z,6.80
2023-04-12T05:50:26.424Z,5.82
2023-04-12T05:52:56.649Z,6.95
2023-04-12T05:55:26.549Z,6.55
2023-04-12T05:57:56.309Z,6.00
2023-04-12T06:00:26.548Z,6.32
2023-04-12T06:03:01.200Z,5.97
2023-04-12T06:05:29.080Z,6.25
2023-04-12T06:08:00.201Z,6.13
2023-04-12T06:10:30.561Z,5.85
2023-04-12T06:13:00.145Z,5.93
2023-04-12T06:15:32.160Z,5.65
2023-04-12T06:18:02.463Z,6.03
2023-04-12T06:20:32.637Z,5.80
2023-04-12T06:23:02.199Z,5.78
2023-04-12T06:25:33.148Z,5.38
2023-04-12T06:28:02.346Z,6.13
2023-04-12T06:30:30.900Z,6.00
2023-04-12T06:32:59.242Z,5.13
2023-04-12T06:35:27.510Z,5.72
2023-04-12T06:37:56.028Z,5.75
2023-04-12T06:40:24.537Z,5.18
2023-04-12T06:42:53.024Z,5.32
2023-04-12T06:45:21.264Z,5.38
2023-04-12T06:47:49.756Z,4.78
2023-04-12T06:50:18.703Z,5.53
2023-04-12T06:52:48.531Z,5.57
2023-04-12T06:55:18.317Z,4.93
2023-04-12T06:57:46.411Z,5.88
2023-04-12T07:00:15.468Z,5.57
2023-04-12T07:02:43.313Z,6.00
2023-04-12T07:05:11.478Z,5.30
2023-04-12T07:07:40.119Z,5.13
2023-04-12T07:10:09.146Z,4.38
2023-04-12T07:12:37.077Z,5.05
2023-04-12T07:15:06.174Z,4.78
2023-04-12T07:17:34.050Z,4.07
2023-04-12T07:20:02.459Z,4.15
2023-04-12T07:22:30.766Z,4.20
2023-04-12T07:24:59.256Z,5.13
2023-04-12T07:27:27.475Z,4.07
2023-04-12T07:29:56.153Z,3.60
2023-04-12T07:32:24.314Z,3.60
2023-04-12T07:34:53.238Z,3.50
2023-04-12T07:37:21.060Z,3.00
2023-04-12T07:39:49.459Z,2.75
2023-04-12T07:42:18.078Z,2.35
2023-04-12T07:44:46.292Z,2.97
2023-04-12T07:47:14.727Z,2.47
2023-04-12T07:49:43.123Z,2.78
2023-04-12T07:52:11.618Z,2.50
2023-04-12T07:54:40.234Z,2.58
2023-04-12T07:59:36.895Z,2.65
2023-04-12T08:02:06.380Z,2.67
2023-04-12T08:04:33.861Z,1.90
2023-04-12T08:07:02.098Z,2.13
2023-04-12T08:09:31.001Z,1.95
2023-04-12T08:11:58.846Z,2.45
2023-04-12T08:14:27.334Z,1.90
2023-04-12T08:16:55.724Z,2.03
2023-04-12T08:19:24.671Z,2.55
2023-04-12T08:21:53.341Z,2.05
2023-04-12T08:24:21.388Z,2.47
2023-04-12T08:26:51.352Z,2.00
2023-04-12T08:29:21.447Z,1.63
2023-04-12T08:31:52.026Z,1.85
2023-04-12T08:34:22.641Z,1.90
2023-04-12T08:36:52.716Z,2.67
2023-04-12T08:39:23.389Z,1.58
2023-04-12T08:41:57.514Z,1.70
2023-04-12T08:44:39.731Z,1.83
2023-04-12T08:47:11.870Z,1.90
2023-04-12T08:49:41.089Z,1.88
2023-04-12T08:52:11.464Z,1.67
2023-04-12T08:54:41.819Z,1.52
2023-04-12T08:57:15.648Z,1.83
2023-04-12T08:59:49.303Z,1.70
2023-04-12T09:02:17.453Z,1.90
2023-04-12T09:04:52.632Z,2.15
2023-04-12T09:07:28.257Z,1.90
2023-04-12T09:10:04.401Z,1.88
2023-04-12T09:12:34.799Z,1.85
2023-04-12T09:15:15.788Z,1.58
2023-04-12T09:17:44.698Z,1.80
2023-04-12T09:20:18.083Z,2.10
2023-04-12T09:22:49.027Z,1.83
2023-04-12T09:25:18.526Z,1.60
2023-04-12T09:27:54.685Z,2.00
2023-04-12T09:30:22.617Z,2.00
2023-04-12T09:32:51.267Z,2.00
2023-04-12T09:35:33.173Z,2.60
2023-04-12T09:38:11.284Z,2.10
2023-04-12T09:40:41.939Z,2.00
2023-04-12T09:43:12.176Z,2.15
2023-04-12T09:45:42.435Z,2.05
2023-04-12T09:48:26.479Z,2.15
2023-04-12T09:51:01.544Z,2.63
2023-04-12T09:53:36.439Z,2.00
2023-04-12T09:56:09.261Z,2.20
2023-04-12T09:58:41.331Z,2.40
2023-04-12T10:01:11.349Z,2.20
2023-04-12T10:03:41.914Z,2.78
2023-04-12T10:06:13.791Z,2.28
2023-04-12T10:08:44.554Z,1.92
2023-04-12T10:11:14.636Z,2.10
2023-04-12T10:13:45.515Z,2.40
2023-04-12T10:16:17.138Z,2.08
2023-04-12T10:18:48.461Z,1.98
2023-04-12T10:21:18.974Z,2.05
2023-04-12T10:23:49.329Z,2.10
2023-04-12T10:26:19.397Z,2.33
2023-04-12T10:29:47.994Z,1.90
2023-04-12T10:32:25.811Z,1.98
2023-04-12T10:34:59.136Z,1.83
2023-04-12T10:38:04.485Z,1.70
2023-04-12T10:40:35.740Z,2.17
2023-04-12T10:43:23.440Z,2.28
2023-04-12T10:45:53.557Z,2.30
2023-04-12T10:48:52.078Z,2.00
2023-04-12T10:51:26.032Z,2.70
2023-04-12T10:54:08.377Z,2.45
2023-04-12T10:56:47.984Z,2.13
2023-04-12T10:59:21.078Z,2.17
2023-04-12T11:02:25.625Z,1.80
2023-04-12T11:05:14.758Z,2.65
2023-04-12T11:10:21.907Z,2.20
2023-04-12T11:12:57.483Z,1.65
2023-04-12T11:15:29.012Z,1.85
2023-04-12T11:18:01.175Z,1.75
2023-04-12T11:20:33.732Z,1.67
2023-04-12T11:23:06.019Z,1.45
2023-04-12T11:25:37.976Z,1.75
2023-04-12T11:28:21.223Z,1.70
2023-04-12T11:30:57.552Z,2.25
2023-04-12T11:33:40.401Z,1.45
2023-04-12T11:36:13.437Z,2.00
2023-04-12T11:38:46.447Z,1.75
2023-04-12T11:41:18.641Z,1.60
2023-04-12T11:43:49.649Z,1.60
2023-04-12T11:46:19.902Z,1.75
2023-04-12T11:48:48.592Z,1.42
2023-04-12T11:51:31.657Z,1.75
2023-04-12T11:54:02.717Z,1.88
2023-04-12T11:56:33.025Z,1.98
2023-04-12T11:59:04.144Z,1.95
2023-04-12T12:01:38.724Z,1.35
2023-04-12T12:04:09.475Z,1.48
2023-04-12T12:06:40.722Z,1.65
2023-04-12T12:09:13.472Z,2.00
2023-04-12T12:11:54.132Z,1.35
2023-04-12T12:14:25.329Z,1.83
2023-04-12T12:16:59.990Z,1.85
2023-04-12T12:19:33.590Z,3.38
2023-04-12T12:22:22.366Z,2.53
2023-04-12T12:24:58.733Z,1.45
2023-04-12T12:27:38.708Z,1.67
2023-04-12T12:30:11.542Z,1.67
2023-04-12T12:32:40.650Z,2.20
2023-04-12T12:35:14.133Z,1.73
2023-04-12T12:37:58.911Z,1.55
2023-04-12T12:40:32.848Z,1.85
2023-04-12T12:43:04.012Z,1.73
2023-04-12T12:45:34.722Z,1.67
2023-04-12T12:48:05.537Z,1.48
2023-04-12T12:50:36.594Z,1.70
2023-04-12T12:53:06.540Z,1.65
2023-04-12T12:55:36.328Z,1.83
2023-04-12T12:58:07.988Z,1.30
2023-04-12T13:00:38.656Z,1.17
2023-04-12T13:03:08.734Z,1.60
2023-04-12T13:05:38.814Z,1.48
2023-04-12T13:08:08.584Z,1.65
2023-04-12T13:10:38.411Z,1.33
2023-04-12T13:13:08.975Z,1.80
2023-04-12T13:15:38.416Z,1.70
2023-04-12T13:18:08.249Z,1.52
2023-04-12T13:20:38.214Z,1.70
2023-04-12T13:23:08.143Z,1.80
2023-04-12T13:25:39.104Z,1.50
2023-04-12T13:28:09.861Z,1.50
2023-04-12T13:30:39.052Z,1.50
2023-04-12T13:33:10.591Z,1.70
2023-04-12T13:35:39.572Z,1.70
2023-04-12T13:38:09.295Z,1.80
2023-04-12T13:40:39.159Z,1.65
2023-04-12T13:43:08.882Z,1.80
2023-04-12T13:45:36.268Z,1.60
2023-04-12T13:48:04.693Z,1.52
2023-04-12T13:50:32.964Z,1.80
2023-04-12T13:53:01.657Z,1.30
2023-04-12T13:55:29.880Z,1.60
2023-04-12T13:57:58.243Z,1.60
2023-04-12T14:00:27.602Z,1.75
2023-04-12T14:02:55.284Z,1.70
2023-04-12T14:05:23.593Z,1.40
2023-04-12T14:07:52.745Z,1.63
2023-04-12T14:10:20.431Z,1.48
2023-04-12T14:12:49.042Z,1.75
2023-04-12T14:15:17.849Z,1.33
2023-04-12T14:17:51.882Z,1.25
2023-04-12T14:20:24.072Z,1.50
2023-04-12T14:22:54.127Z,2.10
2023-04-12T14:25:24.032Z,1.45
2023-04-12T14:27:58.410Z,1.20
2023-04-12T14:30:28.949Z,1.50
2023-04-12T14:32:59.254Z,1.23
2023-04-12T14:35:29.599Z,1.95
2023-04-12T14:38:03.095Z,1.40
2023-04-12T14:40:33.280Z,1.50
2023-04-12T14:43:03.721Z,1.60
2023-04-12T14:45:33.935Z,1.80
2023-04-12T14:48:04.275Z,1.90
2023-04-12T14:50:37.281Z,1.92
2023-04-12T14:53:09.786Z,1.40
2023-04-12T14:55:46.839Z,2.33
2023-04-12T14:58:17.196Z,1.65
2023-04-12T15:00:49.298Z,2.25
2023-04-12T15:03:21.253Z,2.28
2023-04-12T15:05:51.506Z,2.22
2023-04-12T15:08:23.463Z,2.05
2023-04-12T15:10:53.562Z,2.15
2023-04-12T15:13:29.883Z,2.42
2023-04-12T15:16:03.062Z,2.20
2023-04-12T15:18:33.233Z,2.50
2023-04-12T15:21:06.242Z,3.38
2023-04-12T15:23:37.936Z,2.80
2023-04-12T15:26:11.674Z,3.03
2023-04-12T15:28:42.640Z,3.38
2023-04-12T15:31:13.786Z,3.22
2023-04-12T15:33:44.338Z,3.25
2023-04-12T15:36:13.146Z,2.90
2023-04-12T15:38:42.764Z,3.33
2023-04-12T15:41:12.305Z,3.53
2023-04-12T15:43:42.215Z,3.47
2023-04-12T15:46:14.625Z,3.47
2023-04-12T15:48:44.788Z,3.00
2023-04-12T15:51:15.038Z,4.20
2023-04-12T15:53:45.219Z,4.40
2023-04-12T15:56:20.014Z,4.22
2023-04-12T15:58:58.993Z,3.53
2023-04-12T16:01:29.659Z,3.47
2023-04-12T16:04:00.238Z,4.40
2023-04-12T16:06:34.746Z,4.43
2023-04-12T16:09:02.860Z,3.83
2023-04-12T16:11:34.093Z,4.57
2023-04-12T16:14:04.103Z,4.68
2023-04-12T16:16:34.097Z,4.15
2023-04-12T16:19:04.686Z,4.70
2023-04-12T16:21:34.471Z,4.53
2023-04-12T16:24:05.087Z,4.75
2023-04-12T16:26:35.581Z,5.60
2023-04-12T16:29:05.538Z,4.68
2023-04-12T16:31:35.936Z,4.93
2023-04-12T16:34:04.147Z,5.20
2023-04-12T16:36:32.563Z,5.57
2023-04-12T16:39:03.238Z,6.25
2023-04-12T16:41:32.577Z,5.80
2023-04-12T16:44:03.522Z,6.10
2023-04-12T16:46:35.511Z,5.28
2023-04-12T16:49:06.146Z,5.15
2023-04-12T16:51:37.230Z,5.93
2023-04-12T16:54:07.061Z,4.60
2023-04-12T16:56:34.323Z,4.03
2023-04-12T16:59:05.172Z,4.35
2023-04-12T17:01:35.130Z,3.70
2023-04-12T17:04:04.438Z,4.60
2023-04-12T17:06:34.657Z,4.03
2023-04-12T17:09:05.140Z,4.30
2023-04-12T17:11:36.295Z,4.05
2023-04-12T17:14:05.748Z,3.65
2023-04-12T17:16:38.260Z,4.25
2023-04-12T17:19:10.591Z,4.32
2023-04-12T17:21:42.697Z,4.32
2023-04-12T17:24:12.497Z,4.10
2023-04-12T17:26:42.743Z,4.25
2023-04-12T17:29:13.674Z,3.67
2023-04-12T17:31:45.927Z,4.65
2023-04-12T17:34:15.151Z,3.80
2023-04-12T17:36:45.330Z,4.00
2023-04-12T17:39:15.449Z,4.00
2023-04-12T17:41:47.073Z,3.78
2023-04-12T17:44:18.018Z,4.07
2023-04-12T17:46:46.732Z,3.92
2023-04-12T17:49:16.884Z,3.90
2023-04-12T17:51:50.000Z,4.53
2023-04-12T17:54:17.321Z,3.70
2023-04-12T17:56:54.175Z,3.78
2023-04-12T17:59:26.073Z,3.80
2023-04-12T18:01:57.091Z,3.88
2023-04-12T18:04:29.402Z,4.18
2023-04-12T18:06:59.664Z,4.40
2023-04-12T18:09:30.060Z,4.35
2023-04-12T18:11:57.762Z,4.50
2023-04-12T18:14:27.555Z,4.03
2023-04-12T18:16:55.962Z,4.68
2023-04-12T18:19:25.889Z,4.22
2023-04-12T18:21:56.077Z,4.10
2023-04-12T18:24:27.074Z,4.38
2023-04-12T18:27:02.148Z,4.03
2023-04-12T18:29:33.093Z,4.40
2023-04-12T18:32:04.398Z,4.35
2023-04-12T18:34:34.518Z,4.53
2023-04-12T18:37:06.290Z,4.28
2023-04-12T18:39:36.774Z,4.30
2023-04-12T18:42:07.549Z,3.78
2023-04-12T18:44:38.103Z,4.15
2023-04-12T18:47:08.782Z,3.90
2023-04-12T18:49:39.179Z,3.60
2023-04-12T18:52:09.526Z,3.90
2023-04-12T18:54:39.653Z,3.90
2023-04-12T18:57:08.539Z,4.18
2023-04-12T18:59:37.352Z,3.92
2023-04-12T19:02:05.847Z,3.85
2023-04-12T19:04:34.244Z,3.55
2023-04-12T19:07:02.538Z,3.63
2023-04-12T19:09:35.578Z,3.95
2023-04-12T19:12:08.228Z,3.90
2023-04-12T19:14:38.632Z,3.83
2023-04-12T19:17:09.636Z,3.55
2023-04-12T19:19:39.861Z,3.90
2023-04-12T19:22:10.078Z,3.10
2023-04-12T19:24:40.188Z,3.70
2023-04-12T19:27:09.394Z,3.47
2023-04-12T19:29:37.005Z,3.97
2023-04-12T19:32:07.294Z,4.18
2023-04-12T19:34:37.100Z,3.22
2023-04-12T19:37:06.021Z,3.63
2023-04-12T19:39:37.521Z,3.17
2023-04-12T19:42:15.599Z,3.17
2023-04-12T19:44:46.061Z,3.35
2023-04-12T19:47:16.657Z,3.70
2023-04-12T19:49:49.710Z,3.53
2023-04-12T19:52:21.997Z,3.60
2023-04-12T19:54:54.189Z,3.35
2023-04-12T19:57:25.302Z,4.00
2023-04-12T19:59:58.591Z,3.67
2023-04-12T20:02:29.054Z,2.90
2023-04-12T20:04:59.298Z,3.42
2023-04-12T20:07:29.816Z,3.35
2023-04-12T20:10:03.713Z,3.30
2023-04-12T20:12:38.153Z,3.30
2023-04-12T20:15:11.970Z,3.10
2023-04-12T20:17:44.169Z,3.45
2023-04-12T20:20:14.411Z,3.25
2023-04-12T20:22:52.263Z,3.60
2023-04-12T20:25:22.457Z,3.10
2023-04-12T20:27:55.534Z,3.58
2023-04-12T20:30:26.315Z,3.25
2023-04-12T20:32:56.878Z,4.00
2023-04-12T20:35:28.119Z,3.20
2023-04-12T20:37:58.256Z,3.08
2023-04-12T20:40:30.019Z,3.22
2023-04-12T20:43:00.507Z,3.65
2023-04-12T20:45:30.915Z,5.18
2023-04-12T20:48:01.322Z,3.60
2023-04-12T20:50:31.488Z,3.50
2023-04-12T20:53:01.596Z,3.22
2023-04-12T20:55:35.123Z,3.85
2023-04-12T20:59:30.460Z,3.67
2023-04-12T21:02:00.785Z,3.80
2023-04-12T21:04:36.457Z,3.83
2023-04-12T21:07:06.153Z,3.42
2023-04-12T21:09:34.162Z,4.05
2023-04-12T21:12:08.967Z,4.38
2023-04-12T21:14:37.939Z,4.07
2023-04-12T21:17:08.174Z,4.22
2023-04-12T21:19:41.879Z,3.58
2023-04-12T21:22:12.381Z,6.10
2023-04-12T21:24:42.114Z,4.28
2023-04-12T21:27:10.572Z,4.43
2023-04-12T21:29:41.634Z,4.78
2023-04-12T21:32:10.370Z,4.10
2023-04-12T21:34:39.389Z,4.47
2023-04-12T21:37:07.170Z,4.40
2023-04-12T21:39:35.665Z,4.63
2023-04-12T21:42:04.713Z,4.85
2023-04-12T21:44:32.353Z,4.20
2023-04-12T21:47:00.821Z,4.93
2023-04-12T21:49:30.394Z,4.80
2023-04-12T21:51:59.319Z,5.65
2023-04-12T21:54:30.626Z,4.72
2023-04-12T21:57:01.603Z,4.90
2023-04-12T21:59:30.477Z,4.07
2023-04-12T22:02:00.336Z,4.80
2023-04-12T22:04:30.118Z,5.38
2023-04-12T22:07:02.295Z,5.13
2023-04-12T22:09:33.759Z,5.40
2023-04-12T22:12:08.201Z,4.53
2023-04-12T22:14:46.674Z,4.85
2023-04-12T22:17:21.684Z,5.17
2023-04-12T22:19:56.674Z,5.20
2023-04-12T22:22:29.310Z,4.80
2023-04-12T22:25:00.543Z,4.88
2023-04-12T22:27:31.494Z,5.00
2023-04-12T22:30:00.880Z,5.25
2023-04-12T22:32:33.097Z,5.43
2023-04-12T22:35:08.256Z,5.43
2023-04-12T22:37:41.432Z,5.25
2023-04-12T22:40:13.770Z,6.22
2023-04-12T22:42:46.959Z,6.30
2023-04-12T22:45:18.242Z,6.05
2023-04-12T22:47:47.912Z,5.63
2023-04-12T22:50:18.117Z,6.13
2023-04-12T22:52:50.179Z,6.63
2023-04-12T22:55:21.992Z,6.70
2023-04-12T22:57:53.264Z,6.82
2023-04-12T23:00:25.278Z,6.20
2023-04-12T23:02:56.319Z,6.28
2023-04-12T23:05:26.511Z,7.28
2023-04-12T23:07:56.648Z,5.97
2023-04-12T23:10:26.749Z,6.63
2023-04-12T23:12:56.732Z,7.32
2023-04-12T23:15:26.561Z,8.95
2023-04-12T23:17:56.375Z,8.15
2023-04-12T23:20:26.271Z,7.40
2023-04-12T23:22:59.768Z,7.65
2023-04-12T23:25:41.975Z,7.07
2023-04-12T23:28:16.032Z,6.75
2023-04-12T23:30:49.091Z,7.90
2023-04-12T23:33:22.193Z,7.55
2023-04-12T23:36:12.374Z,7.68
2023-04-12T23:38:44.524Z,7.63
2023-04-12T23:41:14.624Z,8.23
2023-04-12T23:43:44.708Z,7.88
2023-04-12T23:46:14.830Z,8.20
2023-04-12T23:48:45.020Z,8.65
2023-04-12T23:51:16.829Z,7.80
2023-04-12T23:53:46.967Z,8.60
2023-04-12T23:56:15.411Z,8.88
2023-04-12T23:58:45.766Z,9.23
